createdAt,value
2023-01-09T00:01:45.905Z,1.00
2023-01-09T00:04:13.512Z,0.52
2023-01-09T00:06:43.168Z,0.40
2023-01-09T00:09:11.827Z,0.47
2023-01-09T00:11:39.338Z,0.50
2023-01-09T00:14:06.720Z,0.30
2023-01-09T00:16:34.043Z,0.40
2023-01-09T00:19:01.402Z,0.30
2023-01-09T00:21:28.786Z,0.30
2023-01-09T00:23:56.100Z,0.35
2023-01-09T00:26:24.756Z,0.30
2023-01-09T00:28:54.073Z,0.20
2023-01-09T00:31:21.772Z,0.60
2023-01-09T00:33:51.223Z,0.30
2023-01-09T00:36:18.570Z,0.50
2023-01-09T00:38:45.896Z,0.30
2023-01-09T00:41:17.912Z,0.28
2023-01-09T00:43:47.912Z,0.55
2023-01-09T00:46:16.243Z,0.30
2023-01-09T00:48:45.284Z,0.30
2023-01-09T00:51:12.598Z,0.50
2023-01-09T00:53:41.070Z,0.22
2023-01-09T00:56:10.179Z,0.30
2023-01-09T00:58:38.167Z,0.30
2023-01-09T01:01:07.011Z,0.43
2023-01-09T01:03:34.450Z,0.20
2023-01-09T01:06:19.070Z,0.22
2023-01-09T01:08:46.471Z,0.30
2023-01-09T01:11:13.890Z,0.32
2023-01-09T01:13:42.122Z,0.45
2023-01-09T01:16:12.802Z,0.38
2023-01-09T01:18:40.428Z,0.40
2023-01-09T01:21:08.413Z,0.30
2023-01-09T01:23:36.298Z,0.30
2023-01-09T01:26:07.334Z,0.30
2023-01-09T01:28:35.030Z,0.40
2023-01-09T01:31:02.557Z,0.30
2023-01-09T01:33:31.232Z,0.40
2023-01-09T01:36:02.194Z,0.40
2023-01-09T01:38:30.072Z,0.50
2023-01-09T01:40:57.529Z,0.30
2023-01-09T01:43:25.223Z,0.40
2023-01-09T01:45:52.912Z,0.65
2023-01-09T01:48:22.308Z,0.50
2023-01-09T01:50:52.502Z,0.50
2023-01-09T01:53:20.728Z,0.47
2023-01-09T01:55:53.189Z,0.38
2023-01-09T01:58:21.088Z,0.38
2023-01-09T02:00:48.783Z,0.50
2023-01-09T02:03:16.620Z,0.47
2023-01-09T02:05:44.214Z,0.60
2023-01-09T02:08:13.090Z,0.60
2023-01-09T02:10:40.752Z,0.50
2023-01-09T02:13:09.179Z,0.57
2023-01-09T02:15:43.107Z,0.47
2023-01-09T02:18:17.864Z,0.43
2023-01-09T02:23:30.430Z,0.50
2023-01-09T02:28:54.986Z,0.68
2023-01-09T02:31:29.230Z,0.50
2023-01-09T02:34:01.291Z,0.60
2023-01-09T02:36:32.797Z,0.63
2023-01-09T02:39:07.882Z,0.75
2023-01-09T02:41:39.172Z,0.68
2023-01-09T02:44:13.683Z,0.50
2023-01-09T02:46:42.644Z,0.60
2023-01-09T02:49:10.096Z,0.68
2023-01-09T02:51:41.341Z,0.60
2023-01-09T02:54:22.623Z,0.60
2023-01-09T02:56:59.457Z,0.65
2023-01-09T02:59:30.697Z,0.60
2023-01-09T03:02:08.251Z,1.05
2023-01-09T03:04:41.666Z,0.88
2023-01-09T03:07:11.674Z,0.82
2023-01-09T03:09:40.837Z,0.90
2023-01-09T03:12:10.201Z,0.85
2023-01-09T03:14:39.390Z,0.73
2023-01-09T03:17:11.185Z,1.15
2023-01-09T03:19:38.841Z,0.90
2023-01-09T03:22:06.265Z,0.90
2023-01-09T03:24:33.712Z,1.02
2023-01-09T03:27:01.431Z,0.88
2023-01-09T03:29:29.646Z,0.90
2023-01-09T03:31:57.404Z,0.90
2023-01-09T03:34:26.245Z,1.45
2023-01-09T03:36:53.638Z,1.40
2023-01-09T03:39:21.153Z,1.02
2023-01-09T03:41:48.857Z,1.00
2023-01-09T03:44:16.349Z,1.67
2023-01-09T03:46:43.686Z,1.35
2023-01-09T03:49:11.084Z,0.82
2023-01-09T03:51:40.099Z,1.30
2023-01-09T03:54:07.486Z,1.25
2023-01-09T03:56:35.045Z,2.17
2023-01-09T03:59:02.319Z,1.30
2023-01-09T04:01:29.794Z,1.05
2023-01-09T04:03:57.211Z,1.58
2023-01-09T04:06:24.695Z,1.83
2023-01-09T04:08:53.362Z,1.30
2023-01-09T04:11:22.289Z,1.35
2023-01-09T04:13:49.582Z,1.42
2023-01-09T04:16:16.931Z,0.80
2023-01-09T04:18:44.277Z,1.55
2023-01-09T04:21:11.576Z,1.23
2023-01-09T04:23:38.941Z,1.50
2023-01-09T04:26:07.873Z,1.25
2023-01-09T04:28:35.207Z,1.30
2023-01-09T04:31:03.205Z,1.13
2023-01-09T04:33:32.430Z,1.48
2023-01-09T04:35:59.780Z,1.05
2023-01-09T04:38:27.318Z,1.23
2023-01-09T04:40:54.641Z,1.40
2023-01-09T04:43:23.270Z,1.35
2023-01-09T04:45:50.636Z,1.20
2023-01-09T04:48:17.960Z,1.30
2023-01-09T04:50:45.299Z,1.40
2023-01-09T04:53:12.596Z,0.98
2023-01-09T04:55:41.114Z,1.55
2023-01-09T04:58:08.480Z,1.02
2023-01-09T05:00:37.132Z,1.35
2023-01-09T05:03:04.537Z,1.52
2023-01-09T05:05:31.817Z,1.85
2023-01-09T05:07:59.183Z,1.45
2023-01-09T05:10:26.529Z,0.98
2023-01-09T05:12:53.858Z,1.20
2023-01-09T05:15:21.578Z,1.30
2023-01-09T05:17:50.205Z,1.42
2023-01-09T05:20:17.488Z,1.20
2023-01-09T05:22:44.877Z,1.27
2023-01-09T05:25:12.181Z,1.05
2023-01-09T05:27:39.518Z,1.30
2023-01-09T05:30:07.339Z,1.40
2023-01-09T05:32:35.907Z,1.55
2023-01-09T05:35:04.948Z,1.40
2023-01-09T05:37:32.213Z,1.17
2023-01-09T05:39:59.488Z,1.27
2023-01-09T05:42:26.847Z,1.40
2023-01-09T05:44:54.168Z,1.48
2023-01-09T05:47:21.565Z,1.13
2023-01-09T05:49:48.861Z,0.90
2023-01-09T05:52:17.517Z,1.52
2023-01-09T05:54:44.914Z,1.67
2023-01-09T05:57:12.236Z,1.67
2023-01-09T05:59:39.555Z,1.50
2023-01-09T06:02:06.971Z,1.58
2023-01-09T06:04:34.664Z,2.05
2023-01-09T06:07:01.961Z,1.50
2023-01-09T06:09:31.321Z,1.20
2023-01-09T06:11:58.784Z,1.20
2023-01-09T06:14:26.098Z,1.13
2023-01-09T06:16:53.431Z,1.30
2023-01-09T06:19:20.762Z,1.20
2023-01-09T06:21:48.121Z,1.05
2023-01-09T06:24:15.523Z,1.17
2023-01-09T06:26:44.334Z,1.20
2023-01-09T06:29:11.751Z,1.10
2023-01-09T06:31:39.103Z,1.35
2023-01-09T06:34:06.418Z,1.20
2023-01-09T06:36:33.727Z,1.35
2023-01-09T06:39:01.027Z,1.45
2023-01-09T06:41:28.353Z,1.25
2023-01-09T06:43:57.000Z,1.10
2023-01-09T06:46:24.415Z,1.08
2023-01-09T06:48:51.820Z,1.48
2023-01-09T06:51:19.120Z,1.23
2023-01-09T06:53:46.779Z,1.05
2023-01-09T06:56:14.059Z,1.00
2023-01-09T06:58:41.402Z,1.40
2023-01-09T07:01:10.192Z,1.38
2023-01-09T07:03:37.628Z,1.95
2023-01-09T07:06:05.162Z,1.42
2023-01-09T07:08:32.587Z,0.95
2023-01-09T07:10:59.915Z,1.40
2023-01-09T07:13:27.312Z,1.08
2023-01-09T07:15:54.689Z,1.00
2023-01-09T07:18:23.381Z,1.30
2023-01-09T07:20:50.691Z,1.38
2023-01-09T07:23:18.678Z,1.50
2023-01-09T07:25:46.037Z,1.67
2023-01-09T07:28:13.401Z,1.40
2023-01-09T07:30:40.803Z,1.20
2023-01-09T07:33:08.182Z,1.40
2023-01-09T07:35:36.825Z,1.48
2023-01-09T07:38:04.239Z,1.20
2023-01-09T07:40:31.607Z,1.20
2023-01-09T07:42:58.913Z,1.50
2023-01-09T07:45:26.208Z,0.95
2023-01-09T07:47:53.518Z,1.27
2023-01-09T07:50:20.863Z,1.10
2023-01-09T07:52:49.522Z,1.35
2023-01-09T07:55:17.702Z,1.88
2023-01-09T07:57:48.491Z,1.38
2023-01-09T08:00:16.197Z,0.70
2023-01-09T08:02:43.571Z,1.45
2023-01-09T08:05:14.709Z,1.00
2023-01-09T08:07:42.032Z,1.00
2023-01-09T08:10:11.396Z,1.13
2023-01-09T08:12:38.705Z,1.20
2023-01-09T08:15:06.428Z,1.10
2023-01-09T08:17:33.756Z,1.33
2023-01-09T08:20:01.063Z,1.15
2023-01-09T08:22:28.400Z,1.23
2023-01-09T08:24:55.739Z,0.60
2023-01-09T08:27:24.476Z,0.95
2023-01-09T08:29:53.924Z,1.00
2023-01-09T08:32:21.277Z,1.15
2023-01-09T08:34:48.698Z,1.23
2023-01-09T08:37:16.104Z,1.25
2023-01-09T08:39:43.462Z,1.25
2023-01-09T08:42:28.231Z,0.82
2023-01-09T08:45:14.658Z,0.93
2023-01-09T08:47:42.191Z,0.85
2023-01-09T08:50:10.047Z,1.30
2023-01-09T08:52:37.327Z,1.10
2023-01-09T08:55:04.766Z,0.88
2023-01-09T08:57:32.149Z,1.45
2023-01-09T09:00:00.843Z,0.90
2023-01-09T09:02:28.179Z,0.80
2023-01-09T09:04:56.282Z,0.90
2023-01-09T09:07:26.540Z,1.30
2023-01-09T09:09:54.233Z,1.60
2023-01-09T09:12:21.906Z,1.13
2023-01-09T09:15:06.802Z,1.40
2023-01-09T09:17:35.438Z,1.42
2023-01-09T09:20:02.760Z,0.70
2023-01-09T09:22:30.838Z,1.00
2023-01-09T09:24:58.201Z,1.08
2023-01-09T09:27:25.571Z,1.30
2023-01-09T09:29:52.869Z,1.25
2023-01-09T09:32:20.152Z,1.15
2023-01-09T09:34:48.871Z,1.27
2023-01-09T09:37:16.161Z,1.35
2023-01-09T09:39:43.521Z,1.70
2023-01-09T09:42:35.624Z,1.30
2023-01-09T09:45:07.692Z,0.80
2023-01-09T09:47:43.960Z,0.80
2023-01-09T09:50:25.152Z,0.85
2023-01-09T09:52:53.016Z,0.85
2023-01-09T09:55:22.485Z,1.08
2023-01-09T09:57:51.027Z,0.90
2023-01-09T10:00:20.691Z,0.73
2023-01-09T10:02:50.446Z,0.88
2023-01-09T10:05:20.814Z,0.90
2023-01-09T10:07:50.924Z,0.73
2023-01-09T10:10:21.205Z,1.10
2023-01-09T10:12:53.602Z,1.02
2023-01-09T10:15:26.635Z,0.80
2023-01-09T10:18:01.455Z,1.00
2023-01-09T10:23:03.471Z,0.95
2023-01-09T10:28:04.873Z,0.90
2023-01-09T10:30:35.960Z,0.80
2023-01-09T10:33:10.253Z,0.77
2023-01-09T10:35:55.270Z,0.90
2023-01-09T10:38:26.354Z,1.17
2023-01-09T10:40:58.550Z,1.08
2023-01-09T10:43:30.541Z,0.90
2023-01-09T10:45:58.971Z,1.10
2023-01-09T10:48:29.882Z,0.80
2023-01-09T10:50:57.411Z,1.02
2023-01-09T10:53:27.999Z,0.65
2023-01-09T10:55:56.797Z,1.15
2023-01-09T10:58:24.230Z,0.93
2023-01-09T11:00:51.721Z,1.05
2023-01-09T11:03:20.138Z,1.13
2023-01-09T11:05:51.122Z,0.88
2023-01-09T11:08:22.465Z,0.95
2023-01-09T11:10:51.894Z,0.52
2023-01-09T11:13:20.713Z,0.82
2023-01-09T11:15:59.314Z,0.90
2023-01-09T11:18:26.874Z,0.80
2023-01-09T11:20:54.379Z,0.80
2023-01-09T11:23:24.722Z,0.90
2023-01-09T11:25:54.296Z,0.73
2023-01-09T11:28:21.740Z,1.00
2023-01-09T11:30:52.690Z,0.70
2023-01-09T11:33:21.454Z,0.75
2023-01-09T11:35:56.017Z,0.93
2023-01-09T11:38:23.402Z,0.90
2023-01-09T11:40:52.162Z,0.80
2023-01-09T11:43:24.593Z,0.70
2023-01-09T11:46:01.200Z,1.15
2023-01-09T11:48:31.024Z,1.60
2023-01-09T11:50:59.030Z,0.85
2023-01-09T11:53:26.697Z,1.00
2023-01-09T11:56:01.972Z,0.90
2023-01-09T11:58:31.927Z,1.30
2023-01-09T12:01:04.414Z,1.10
2023-01-09T12:03:40.077Z,0.82
2023-01-09T12:06:12.327Z,1.13
2023-01-09T12:08:45.503Z,1.10
2023-01-09T12:11:20.111Z,0.57
2023-01-09T12:13:57.738Z,0.70
2023-01-09T12:16:30.164Z,0.80
2023-01-09T12:19:03.694Z,0.68
2023-01-09T12:21:34.532Z,0.82
2023-01-09T12:24:14.301Z,1.08
2023-01-09T12:26:45.403Z,0.57
2023-01-09T12:29:20.108Z,0.55
2023-01-09T12:34:22.498Z,1.00
2023-01-09T12:36:53.690Z,0.80
2023-01-09T12:39:27.737Z,1.17
2023-01-09T12:42:01.741Z,0.80
2023-01-09T12:44:37.445Z,0.90
2023-01-09T12:47:10.297Z,0.70
2023-01-09T12:49:40.216Z,1.17
2023-01-09T12:52:10.476Z,0.90
2023-01-09T12:54:40.552Z,0.77
2023-01-09T12:57:11.017Z,0.95
2023-01-09T12:59:42.331Z,1.15
2023-01-09T13:02:14.407Z,1.15
2023-01-09T13:04:45.163Z,1.38
2023-01-09T13:07:14.805Z,1.00
2023-01-09T13:09:44.575Z,1.55
2023-01-09T13:12:13.408Z,1.27
2023-01-09T13:14:46.884Z,0.95
2023-01-09T13:17:18.239Z,1.33
2023-01-09T13:19:46.090Z,1.02
2023-01-09T13:22:14.735Z,1.55
2023-01-09T13:24:55.788Z,1.50
2023-01-09T13:27:24.370Z,1.40
2023-01-09T13:29:55.550Z,0.88
2023-01-09T13:32:29.473Z,1.30
2023-01-09T13:34:57.240Z,1.40
2023-01-09T13:37:26.645Z,1.38
2023-01-09T13:39:57.972Z,1.38
2023-01-09T13:42:38.917Z,1.65
2023-01-09T13:45:12.493Z,1.52
2023-01-09T13:47:39.914Z,1.90
2023-01-09T13:50:24.069Z,1.40
2023-01-09T13:52:51.426Z,1.52
2023-01-09T13:55:29.782Z,1.80
2023-01-09T13:58:15.615Z,1.48
2023-01-09T14:00:51.106Z,1.30
2023-01-09T14:03:22.960Z,1.42
2023-01-09T14:06:20.482Z,1.60
2023-01-09T14:08:48.883Z,1.75
2023-01-09T14:11:20.875Z,1.42
2023-01-09T14:13:53.164Z,1.60
2023-01-09T14:16:23.587Z,1.98
2023-01-09T14:18:52.101Z,1.50
2023-01-09T14:21:19.763Z,1.40
2023-01-09T14:23:55.674Z,1.40
2023-01-09T14:26:25.464Z,1.70
2023-01-09T14:28:53.171Z,1.70
2023-01-09T14:31:31.902Z,1.45
2023-01-09T14:34:30.567Z,1.42
2023-01-09T14:37:02.612Z,1.70
2023-01-09T14:39:31.142Z,1.48
2023-01-09T14:42:06.367Z,2.10
2023-01-09T14:44:41.217Z,2.10
2023-01-09T14:47:15.602Z,1.73
2023-01-09T14:49:44.837Z,1.70
2023-01-09T14:52:16.436Z,1.75
2023-01-09T14:54:44.483Z,2.00
2023-01-09T14:57:24.540Z,1.95
2023-01-09T14:59:58.685Z,1.40
2023-01-09T15:02:28.382Z,1.42
2023-01-09T15:04:57.762Z,1.40
2023-01-09T15:07:30.787Z,1.75
2023-01-09T15:10:00.613Z,1.60
2023-01-09T15:12:27.982Z,2.08
2023-01-09T15:14:57.723Z,1.40
2023-01-09T15:17:26.244Z,2.35
2023-01-09T15:19:55.172Z,1.73
2023-01-09T15:22:23.432Z,1.77
2023-01-09T15:24:50.897Z,2.22
2023-01-09T15:27:21.843Z,2.15
2023-01-09T15:29:49.167Z,2.33
2023-01-09T15:32:17.836Z,1.80
2023-01-09T15:34:45.534Z,2.20
2023-01-09T15:37:23.754Z,2.10
2023-01-09T15:39:51.284Z,2.05
2023-01-09T15:42:44.873Z,2.70
2023-01-09T15:45:19.831Z,2.35
2023-01-09T15:47:47.158Z,2.83
2023-01-09T15:50:15.500Z,2.80
2023-01-09T15:52:44.334Z,2.38
2023-01-09T15:55:26.340Z,2.58
2023-01-09T15:57:53.862Z,2.28
2023-01-09T16:00:33.112Z,2.95
2023-01-09T16:03:12.642Z,3.00
2023-01-09T16:05:40.746Z,2.63
2023-01-09T16:08:18.907Z,2.75
2023-01-09T16:10:49.916Z,2.75
2023-01-09T16:13:17.210Z,2.42
2023-01-09T16:15:45.415Z,2.40
2023-01-09T16:18:23.251Z,2.70
2023-01-09T16:20:51.201Z,2.55
2023-01-09T16:23:21.942Z,2.40
2023-01-09T16:25:49.296Z,2.45
2023-01-09T16:30:52.518Z,2.70
2023-01-09T16:33:21.655Z,2.55
2023-01-09T16:35:48.959Z,2.40
2023-01-09T16:38:16.703Z,2.30
2023-01-09T16:41:22.495Z,1.85
2023-01-09T16:46:16.729Z,2.45
2023-01-09T16:48:44.164Z,2.63
2023-01-09T16:51:16.240Z,2.47
2023-01-09T16:53:43.633Z,2.55
2023-01-09T16:56:15.727Z,2.13
2023-01-09T16:58:43.021Z,2.83
2023-01-09T17:01:13.295Z,2.40
2023-01-09T17:03:43.576Z,2.70
2023-01-09T17:06:14.815Z,2.38
2023-01-09T17:08:42.231Z,2.33
2023-01-09T17:11:12.270Z,2.78
2023-01-09T17:13:40.934Z,2.70
2023-01-09T17:16:08.551Z,2.40
2023-01-09T17:18:35.876Z,2.78
2023-01-09T17:21:03.192Z,2.72
2023-01-09T17:23:30.552Z,2.70
2023-01-09T17:26:16.441Z,2.88
2023-01-09T17:28:46.874Z,3.65
2023-01-09T17:31:14.254Z,3.00
2023-01-09T17:33:42.587Z,3.95
2023-01-09T17:36:16.085Z,2.80
2023-01-09T17:38:43.429Z,3.15
2023-01-09T17:41:12.550Z,2.45
2023-01-09T17:43:42.834Z,4.80
2023-01-09T17:46:15.585Z,2.80
2023-01-09T17:48:42.983Z,2.70
2023-01-09T17:51:10.318Z,6.90
2023-01-09T17:53:37.618Z,3.40
2023-01-09T17:56:05.730Z,3.25
2023-01-09T17:58:33.096Z,3.45
2023-01-09T18:01:00.789Z,3.50
2023-01-09T18:03:33.302Z,3.28
2023-01-09T18:06:01.157Z,3.83
2023-01-09T18:08:28.519Z,4.18
2023-01-09T18:10:55.872Z,3.17
2023-01-09T18:13:23.431Z,4.22
2023-01-09T18:15:50.785Z,4.60
2023-01-09T18:18:19.818Z,3.92
2023-01-09T18:20:48.455Z,4.18
2023-01-09T18:23:16.746Z,3.85
2023-01-09T18:25:44.525Z,4.00
2023-01-09T18:28:14.676Z,3.53
2023-01-09T18:30:44.028Z,3.95
2023-01-09T18:33:11.485Z,4.10
2023-01-09T18:35:38.866Z,3.83
2023-01-09T18:38:07.933Z,4.55
2023-01-09T18:40:36.822Z,4.93
2023-01-09T18:43:05.757Z,4.68
2023-01-09T18:45:33.283Z,4.93
2023-01-09T18:48:00.678Z,3.88
2023-01-09T18:50:28.008Z,3.75
2023-01-09T18:52:55.387Z,4.03
2023-01-09T18:55:24.439Z,27.33
2023-01-09T18:57:52.218Z,29.38
2023-01-09T19:00:19.804Z,5.35
2023-01-09T19:02:47.102Z,6.00
2023-01-09T19:05:15.359Z,5.80
2023-01-09T19:07:42.713Z,5.07
2023-01-09T19:10:10.883Z,5.03
2023-01-09T19:12:39.554Z,4.65
2023-01-09T19:15:10.853Z,5.15
2023-01-09T19:17:38.586Z,5.63
2023-01-09T19:20:06.759Z,5.57
2023-01-09T19:22:34.122Z,5.72
2023-01-09T19:25:01.459Z,6.00
2023-01-09T19:27:29.279Z,6.43
2023-01-09T19:29:57.971Z,6.18
2023-01-09T19:32:25.392Z,5.43
2023-01-09T19:34:52.893Z,11.38
2023-01-09T19:37:20.282Z,5.90
2023-01-09T19:39:47.644Z,11.73
2023-01-09T19:42:16.158Z,6.10
2023-01-09T19:44:43.465Z,7.05
2023-01-09T19:47:13.929Z,6.70
2023-01-09T19:49:41.234Z,5.95
2023-01-09T19:52:08.540Z,5.57
2023-01-09T19:54:36.241Z,5.78
2023-01-09T19:57:03.826Z,6.30
2023-01-09T19:59:31.479Z,5.78
2023-01-09T20:01:58.834Z,5.50
2023-01-09T20:04:29.586Z,5.60
2023-01-09T20:06:56.885Z,5.32
2023-01-09T20:09:27.354Z,5.43
2023-01-09T20:11:54.815Z,4.82
2023-01-09T20:14:22.546Z,5.32
2023-01-09T20:16:52.189Z,5.25
2023-01-09T20:19:19.522Z,5.97
2023-01-09T20:21:49.106Z,4.75
2023-01-09T20:24:17.427Z,4.53
2023-01-09T20:26:46.012Z,3.83
2023-01-09T20:29:13.714Z,5.15
2023-01-09T20:31:41.106Z,4.35
2023-01-09T20:34:08.489Z,5.40
2023-01-09T20:36:36.072Z,5.38
2023-01-09T20:39:05.769Z,5.20
2023-01-09T20:41:33.193Z,4.60
2023-01-09T20:44:01.288Z,4.03
2023-01-09T20:46:29.470Z,4.32
2023-01-09T20:48:57.396Z,3.60
2023-01-09T20:51:24.802Z,3.28
2023-01-09T20:53:55.574Z,3.53
2023-01-09T20:56:24.887Z,2.60
2023-01-09T20:58:52.792Z,2.35
2023-01-09T21:01:20.533Z,2.50
2023-01-09T21:03:47.897Z,2.28
2023-01-09T21:06:17.003Z,3.35
2023-01-09T21:08:44.830Z,2.95
2023-01-09T21:11:12.551Z,2.97
2023-01-09T21:13:41.839Z,2.85
2023-01-09T21:16:10.452Z,2.60
2023-01-09T21:18:38.005Z,2.80
2023-01-09T21:21:06.133Z,2.55
2023-01-09T21:23:33.719Z,2.50
2023-01-09T21:26:01.355Z,2.83
2023-01-09T21:28:31.161Z,2.58
2023-01-09T21:30:59.960Z,3.13
2023-01-09T21:33:27.288Z,2.50
2023-01-09T21:35:55.180Z,2.30
2023-01-09T21:38:22.565Z,3.20
2023-01-09T21:40:51.159Z,2.60
2023-01-09T21:43:41.877Z,3.22
2023-01-09T21:46:30.021Z,3.35
2023-01-09T21:48:57.342Z,3.40
2023-01-09T21:51:24.617Z,3.88
2023-01-09T21:53:51.916Z,4.00
2023-01-09T21:56:19.219Z,5.05
2023-01-09T21:58:46.810Z,5.03
2023-01-09T22:01:15.567Z,5.57
2023-01-09T22:03:43.293Z,5.35
2023-01-09T22:06:10.649Z,5.82
2023-01-09T22:08:38.013Z,6.00
2023-01-09T22:11:05.502Z,6.03
2023-01-09T22:13:32.880Z,7.38
2023-01-09T22:16:03.715Z,7.50
2023-01-09T22:18:33.388Z,7.20
2023-01-09T22:21:00.684Z,7.38
2023-01-09T22:23:28.176Z,7.65
2023-01-09T22:25:56.240Z,6.80
2023-01-09T22:28:24.076Z,8.43
2023-01-09T22:30:51.437Z,7.20
2023-01-09T22:33:18.817Z,7.43
2023-01-09T22:35:47.454Z,5.43
2023-01-09T22:38:14.789Z,5.15
2023-01-09T22:40:42.107Z,6.10
2023-01-09T22:43:14.114Z,6.07
2023-01-09T22:45:41.627Z,6.70
2023-01-09T22:48:09.790Z,6.32
2023-01-09T22:50:37.315Z,6.28
2023-01-09T22:53:05.926Z,6.80
2023-01-09T22:55:33.299Z,5.78
2023-01-09T22:58:00.587Z,5.38
2023-01-09T23:00:27.885Z,5.28
2023-01-09T23:02:55.230Z,5.13
2023-01-09T23:05:22.608Z,5.10
2023-01-09T23:07:49.881Z,5.28
2023-01-09T23:10:18.676Z,5.28
2023-01-09T23:12:48.335Z,6.90
2023-01-09T23:15:15.689Z,6.55
2023-01-09T23:17:43.031Z,6.30
2023-01-09T23:20:10.947Z,7.03
2023-01-09T23:22:38.282Z,5.82
2023-01-09T23:25:05.979Z,5.95
2023-01-09T23:27:34.682Z,6.88
2023-01-09T23:30:02.032Z,6.75
2023-01-09T23:32:29.558Z,6.03
2023-01-09T23:34:56.932Z,6.65
2023-01-09T23:37:24.202Z,6.53
2023-01-09T23:39:51.528Z,5.90
2023-01-09T23:42:36.459Z,5.28
2023-01-09T23:45:05.615Z,6.10
2023-01-09T23:47:32.978Z,4.97
2023-01-09T23:50:00.316Z,5.30
2023-01-09T23:52:27.615Z,6.10
2023-01-09T23:54:56.522Z,5.57
2023-01-09T23:57:23.823Z,5.20
2023-01-09T23:59:51.144Z,4.90
